Atlantic - Newfoundland: Past 24 Hour Conditions

 

J.A. Douglas McCurdy Sydney Airport

02:00 AM ADT 17 April 2014
This table is a summary of hourly weather conditions for the past 24 hours.
Date / Time
(ADT)
Wind(knots) Conditions Visibility(km) Pressure(kPa) Air tempC) Relative humidity(%) Dew pointC) Wind Chill
17 April 2014
2:00 NNW 10 Clear 24 103.2 -3 67 -8 -8
1:00 NNW 10 Mainly Clear 24 103.1 -3 66 -8 -8
0:00 NW 11 gust 17 Mainly Clear 24 103.1 -2 65 -8 -8
16 April 2014
23:00 NW 8 Mainly Clear 24 102.9 -2 64 -8 -7
22:00 NW 12 Mainly Clear 24 102.8 -2 64 -7 -7
21:00 NW 11 Partly Cloudy 24 102.6 -1 67 -7 -7
20:00 NW 16 gust 22 Mostly Cloudy 24 102.4 -1 67 -6 -8
19:00 WNW 11 Cloudy 24 102.1 1 76 -3 *
18:00 W 11 Cloudy 16 101.9 2 79 -1 *
17:00 WNW 8 Light Rainshower 8 101.7 3 87 1 *
16:00 W 14 gust 21 Light Rainshower 10 101.4 10 90 9 *
15:00 SW 19 gust 28 Light Rainshower 8 101.2 11 87 9 *
14:00 SW 19 gust 35 Light Rainshower 6 101.1 13 80 10 *
13:00 SSW 23 gust 35 Mostly Cloudy 16 101.1 15 70 10 *
12:00 SSW 23 gust 33 Mostly Cloudy 16 101.1 14 75 10 *
11:00 SSW 21 gust 34 Mostly Cloudy 16 101.2 14 75 10 *
10:00 SSW 21 gust 30 Mostly Cloudy 16 101.1 14 78 10 *
9:00 S 19 gust 27 Partly Cloudy 16 101.2 11 81 8 *
8:00 S 17 gust 24 Mostly Cloudy 16 101.3 11 81 8 *
7:00 S 13 gust 20 Mostly Cloudy 16 101.3 10 85 8 *
6:00 SSW 10 gust 16 Cloudy 16 101.4 10 88 8 *
5:00 SSW 17 gust 31 Cloudy 16 101.4 11 86 9 *
4:00 SSW 19 gust 27 Cloudy 16 101.4 11 86 9 *
3:00 SW 17 gust 28 Fog 10 101.4 12 88 10 *
2:00 SSW 18 gust 25 Fog 10 101.5 11 89 10 *
 
Map of Atlantic - Newfoundland marine weather areas Southwestern Grand Banks - 44138 Banquereau - 44139 Tail of the Bank - 44140 Nickerson Bank - 44251 Northeast Burgeo Bank - 44255 Blanc-Sablon Airport Cap Whittle Chevery Natashquan Airport Heath Point Miscou Island Grand Étang Ingonish Beach North Mountain St.Paul Island J.A. Douglas McCurdy Sydney Airport Charlottetown Airport East Point North Cape Argentia Bonavista Burgeo Cape Race Corner Brook Daniel's Harbour Englee Ferolle Point La Scie Port aux Basques Rocky Harbour Sagona Island St. Anthony Airport St. John's Int'l Airport St. Lawrence Stephenville Airport Twillingate Winterland Wreckhouse Cartwright Airport Mary's Harbour Grates Cove Pool's Island Marticot Island Long Pond Îles de la Madeleine Airport
Legend: buoyBuoy land stationLand Station